map of GAKD home
GAKD - Airport
Location
City:  Kayes Dag, Kayes, Mali
Name:Dag Airport
ICAO:GAKD

Details
Type:Airport (Aerodrome, Airfield)
Use:Public/Civil
Latitude:1428'54"N (14.481709)
Longitude:1124'07"W (-11.401943)
Elevation:98 ft (30 m)
Variation:4.67W (WMM2015v2 magnetic declination)
0.14 annual change
Runways:1
Longest:8858 × 148 ft (2700 × 45 m), paved

Time
Time Zone:UTC+0
Local Time:

Weather
METAR:GAKD 041400Z VRB04KT CAVOK 35/02 Q1012

Related Locations
Nearby:
Farthest:LOD: 12364 mi / 19898 km
Longana, Ambae Island, PAM, VU

Find:

   beyond  
but within

Other Information
Maps:
NOTAMs:
Links:
Sources:

  
  • flag of Mali
  

Sectional Chart

Flight Planning
at skyvector.com

Satellite Image

Google Maps Satellite view

 

Copyright © 2004-2019 Karl L. Swartz. All rights reserved.
The Great Circle Mapper name and logo are trademarks of the Great Circle Mapper.
All other trademarks mentioned herein belong to their respective owners.
Please see credits for attibutions and further copyright information.

  Follow gcmap on Facebook Follow gcmap on Twitter GCmap on LinkedIn

hCard Microformat

Geo Microformat